createdAt,value
2018-02-05T00:01:21.616Z,28.37
2018-02-05T00:03:49.522Z,28.70
2018-02-05T00:06:17.077Z,28.17
2018-02-05T00:08:44.637Z,29.63
2018-02-05T00:11:12.493Z,26.20
2018-02-05T00:13:40.058Z,25.90
2018-02-05T00:16:07.687Z,25.40
2018-02-05T00:18:35.577Z,26.40
2018-02-05T00:21:03.338Z,25.33
2018-02-05T00:23:31.600Z,25.67
2018-02-05T00:25:59.485Z,27.00
2018-02-05T00:28:27.049Z,26.30
2018-02-05T00:30:54.617Z,24.60
2018-02-05T00:33:23.485Z,26.60
2018-02-05T00:35:51.047Z,26.20
2018-02-05T00:38:18.619Z,25.63
2018-02-05T00:40:46.569Z,27.43
2018-02-05T00:43:14.124Z,27.70
2018-02-05T00:45:41.707Z,25.67
2018-02-05T00:48:09.557Z,27.80
2018-02-05T00:50:37.110Z,25.07
2018-02-05T00:53:04.695Z,23.67
2018-02-05T00:55:33.291Z,25.13
2018-02-05T00:58:01.608Z,24.27
2018-02-05T01:00:29.174Z,24.27
2018-02-05T01:02:56.945Z,25.93
2018-02-05T01:05:24.496Z,24.20
2018-02-05T01:07:52.036Z,23.10
2018-02-05T01:10:19.939Z,24.23
2018-02-05T01:12:47.515Z,23.70
2018-02-05T01:15:15.082Z,24.07
2018-02-05T01:17:43.454Z,24.10
2018-02-05T01:20:12.584Z,24.47
2018-02-05T01:22:40.150Z,22.43
2018-02-05T01:25:07.712Z,21.90
2018-02-05T01:27:35.683Z,22.67
2018-02-05T01:30:03.233Z,24.63
2018-02-05T01:32:30.808Z,24.57
2018-02-05T01:34:58.420Z,24.37
2018-02-05T01:37:26.749Z,24.00
2018-02-05T01:39:54.341Z,22.40
2018-02-05T01:42:22.199Z,22.60
2018-02-05T01:44:49.754Z,23.40
2018-02-05T01:47:17.309Z,24.20
2018-02-05T01:49:45.188Z,22.90
2018-02-05T01:52:14.253Z,25.60
2018-02-05T01:54:41.810Z,24.80
2018-02-05T01:57:09.788Z,22.60
2018-02-05T01:59:37.348Z,23.33
2018-02-05T02:02:04.906Z,26.33
2018-02-05T02:04:32.485Z,24.70
2018-02-05T02:07:00.050Z,23.10
2018-02-05T02:09:28.536Z,25.03
2018-02-05T02:11:56.474Z,25.60
2018-02-05T02:14:24.021Z,24.17
2018-02-05T02:16:51.670Z,23.57
2018-02-05T02:19:19.344Z,23.73
2018-02-05T02:21:46.909Z,22.73
2018-02-05T02:24:14.475Z,22.07
2018-02-05T02:26:42.350Z,23.10
2018-02-05T02:29:10.389Z,23.03
2018-02-05T02:31:37.951Z,24.00
2018-02-05T02:34:05.575Z,24.47
2018-02-05T02:36:33.937Z,24.53
2018-02-05T02:39:02.261Z,22.30
2018-02-05T02:41:29.869Z,23.30
2018-02-05T02:43:58.942Z,21.73
2018-02-05T02:46:26.496Z,24.20
2018-02-05T02:48:54.163Z,20.83
2018-02-05T02:51:21.725Z,24.80
2018-02-05T02:53:50.048Z,23.50
2018-02-05T02:56:17.946Z,23.87
2018-02-05T02:58:45.505Z,24.67
2018-02-05T03:01:13.061Z,22.77
2018-02-05T03:03:41.048Z,26.00
2018-02-05T03:06:08.609Z,24.20
2018-02-05T03:08:36.196Z,21.03
2018-02-05T03:11:04.562Z,21.60
2018-02-05T03:13:32.158Z,22.07
2018-02-05T03:15:59.731Z,21.83
2018-02-05T03:18:27.608Z,22.33
2018-02-05T03:20:55.166Z,22.00
2018-02-05T03:23:22.737Z,21.70
2018-02-05T03:25:50.619Z,21.83
2018-02-05T03:28:18.172Z,22.03
2018-02-05T03:30:45.744Z,22.97
2018-02-05T03:33:13.339Z,21.87
2018-02-05T03:35:40.904Z,22.60
2018-02-05T03:38:08.468Z,20.20
2018-02-05T03:40:36.374Z,20.33
2018-02-05T03:43:03.926Z,21.97
2018-02-05T03:45:31.553Z,22.60
2018-02-05T03:47:59.405Z,22.00
2018-02-05T03:50:27.732Z,22.23
2018-02-05T03:52:55.283Z,23.17
2018-02-05T03:55:23.319Z,21.63
2018-02-05T03:57:50.883Z,21.47
2018-02-05T04:00:18.464Z,22.80
2018-02-05T04:02:46.018Z,21.03
2018-02-05T04:05:13.585Z,23.20
2018-02-05T04:07:41.563Z,22.37
2018-02-05T04:10:09.186Z,22.33
2018-02-05T04:12:36.736Z,22.07
2018-02-05T04:15:04.344Z,22.77
2018-02-05T04:17:31.908Z,22.47
2018-02-05T04:20:00.988Z,21.03
2018-02-05T04:22:29.155Z,22.50
2018-02-05T04:24:56.717Z,22.77
2018-02-05T04:27:24.270Z,22.67
2018-02-05T04:29:51.863Z,22.00
2018-02-05T04:32:20.190Z,22.27
2018-02-05T04:34:47.760Z,21.73
2018-02-05T04:37:15.637Z,23.10
2018-02-05T04:39:43.203Z,23.20
2018-02-05T04:42:10.779Z,22.80
2018-02-05T04:44:39.644Z,21.60
2018-02-05T04:47:07.196Z,21.97
2018-02-05T04:49:34.772Z,22.67
2018-02-05T04:52:04.162Z,21.83
2018-02-05T04:54:31.733Z,21.87
2018-02-05T04:56:59.307Z,20.70
2018-02-05T04:59:27.930Z,20.23
2018-02-05T05:01:55.483Z,20.73
2018-02-05T05:04:23.179Z,19.37
2018-02-05T05:06:50.752Z,18.83
2018-02-05T05:09:18.332Z,19.10
2018-02-05T05:11:46.694Z,18.80
2018-02-05T05:14:14.262Z,17.77
2018-02-05T05:16:41.832Z,18.97
2018-02-05T05:19:10.476Z,18.53
2018-02-05T05:21:38.275Z,19.00
2018-02-05T05:24:06.607Z,17.53
2018-02-05T05:26:34.592Z,17.97
2018-02-05T05:29:02.156Z,18.47
2018-02-05T05:31:29.700Z,18.03
2018-02-05T05:33:57.583Z,19.53
2018-02-05T05:36:25.136Z,18.93
2018-02-05T05:38:52.692Z,18.93
2018-02-05T05:41:20.563Z,17.13
2018-02-05T05:43:48.248Z,19.23
2018-02-05T05:46:16.588Z,17.20
2018-02-05T05:48:44.455Z,16.40
2018-02-05T05:51:12.025Z,17.87
2018-02-05T05:53:39.607Z,18.47
2018-02-05T05:56:08.330Z,17.30
2018-02-05T05:58:35.894Z,16.97
2018-02-05T06:01:03.454Z,17.00
2018-02-05T06:03:31.328Z,17.20
2018-02-05T06:05:58.950Z,16.63
2018-02-05T06:08:27.281Z,16.70
2018-02-05T06:10:54.928Z,15.90
2018-02-05T06:13:22.490Z,17.57
2018-02-05T06:15:50.055Z,17.10
2018-02-05T06:18:18.339Z,16.10
2018-02-05T06:20:45.887Z,16.13
2018-02-05T06:23:13.454Z,16.50
2018-02-05T06:25:41.083Z,16.27
2018-02-05T06:28:08.669Z,17.63
2018-02-05T06:30:36.265Z,17.70
2018-02-05T06:33:04.821Z,16.23
2018-02-05T06:35:32.344Z,16.87
2018-02-05T06:37:59.888Z,17.00
2018-02-05T06:40:27.767Z,16.60
2018-02-05T06:42:55.397Z,15.83
2018-02-05T06:45:23.807Z,17.00
2018-02-05T06:47:51.889Z,17.90
2018-02-05T06:50:31.242Z,16.27
2018-02-05T06:53:11.004Z,16.30
2018-02-05T06:55:47.156Z,16.50
2018-02-05T06:58:15.008Z,16.30
2018-02-05T07:00:42.587Z,16.73
2018-02-05T07:03:10.148Z,17.80
2018-02-05T07:05:37.724Z,16.03
2018-02-05T07:08:06.041Z,16.67
2018-02-05T07:10:33.589Z,17.57
2018-02-05T07:13:01.224Z,17.07
2018-02-05T07:15:29.540Z,17.10
2018-02-05T07:17:57.104Z,15.40
2018-02-05T07:20:25.186Z,15.87
2018-02-05T07:22:52.749Z,15.10
2018-02-05T07:25:21.446Z,15.70
2018-02-05T07:27:49.396Z,16.43
2018-02-05T07:30:16.946Z,15.87
2018-02-05T07:32:44.507Z,16.77
2018-02-05T07:35:12.112Z,16.93
2018-02-05T07:37:40.447Z,16.73
2018-02-05T07:40:08.000Z,16.60
2018-02-05T07:42:35.870Z,16.40
2018-02-05T07:45:03.421Z,16.90
2018-02-05T07:47:30.973Z,18.13
2018-02-05T07:49:58.843Z,17.30
2018-02-05T07:52:26.406Z,18.73
2018-02-05T07:54:53.998Z,16.47
2018-02-05T07:57:22.652Z,17.90
2018-02-05T07:59:50.221Z,17.77
2018-02-05T08:02:17.772Z,17.10
2018-02-05T08:04:45.865Z,16.80
2018-02-05T08:07:13.688Z,16.50
2018-02-05T08:09:43.642Z,15.77
2018-02-05T08:12:11.537Z,16.20
2018-02-05T08:14:39.387Z,15.77
2018-02-05T08:17:07.719Z,16.80
2018-02-05T08:19:35.610Z,23.10
2018-02-05T08:22:03.283Z,24.50
2018-02-05T08:24:31.600Z,27.93
2018-02-05T08:26:59.464Z,26.30
2018-02-05T08:29:27.049Z,28.37
2018-02-05T08:31:54.616Z,24.97
2018-02-05T08:34:22.512Z,23.23
2018-02-05T08:36:50.859Z,15.53
2018-02-05T08:39:18.426Z,17.77
2018-02-05T08:41:46.283Z,17.80
2018-02-05T08:44:13.848Z,18.50
2018-02-05T08:46:41.405Z,18.23
2018-02-05T08:49:09.254Z,16.70
2018-02-05T08:51:36.905Z,17.60
2018-02-05T08:54:04.461Z,17.33
2018-02-05T08:56:32.362Z,17.40
2018-02-05T08:58:59.928Z,17.20
2018-02-05T09:01:27.488Z,17.40
2018-02-05T09:03:55.092Z,17.23
2018-02-05T09:06:22.657Z,18.63
2018-02-05T09:08:50.254Z,18.20
2018-02-05T09:11:18.091Z,19.00
2018-02-05T09:13:45.660Z,18.83
2018-02-05T09:16:13.225Z,17.57
2018-02-05T09:18:41.075Z,18.07
2018-02-05T09:21:08.645Z,17.80
2018-02-05T09:23:36.211Z,18.37
2018-02-05T09:26:04.186Z,18.03
2018-02-05T09:28:31.816Z,16.80
2018-02-05T09:30:59.427Z,17.43
2018-02-05T09:33:28.077Z,15.73
2018-02-05T09:35:55.658Z,17.83
2018-02-05T09:38:23.227Z,17.07
2018-02-05T09:40:51.606Z,17.07
2018-02-05T09:43:19.297Z,17.00
2018-02-05T09:45:47.617Z,17.33
2018-02-05T09:48:15.452Z,18.23
2018-02-05T09:50:43.010Z,20.57
2018-02-05T09:53:10.714Z,18.83
2018-02-05T09:55:38.659Z,16.33
2018-02-05T09:58:08.586Z,17.17
2018-02-05T10:00:36.142Z,20.27
2018-02-05T10:03:03.986Z,18.97
2018-02-05T10:05:31.551Z,20.50
2018-02-05T10:07:59.129Z,21.57
2018-02-05T10:10:26.731Z,16.50
2018-02-05T10:12:55.060Z,15.97
2018-02-05T10:15:22.671Z,17.40
2018-02-05T10:17:51.000Z,18.63
2018-02-05T10:20:18.978Z,18.10
2018-02-05T10:22:46.600Z,18.20
2018-02-05T10:25:14.154Z,18.40
2018-02-05T10:27:41.793Z,19.07
2018-02-05T10:30:10.121Z,19.43
2018-02-05T10:32:37.719Z,20.77
2018-02-05T10:35:06.050Z,20.67
2018-02-05T10:37:34.196Z,18.93
2018-02-05T10:40:01.912Z,19.33
2018-02-05T10:42:30.495Z,21.67
2018-02-05T10:44:58.817Z,21.63
2018-02-05T10:47:26.397Z,19.40
2018-02-05T10:49:53.957Z,20.00
2018-02-05T10:52:21.932Z,22.20
2018-02-05T10:54:49.485Z,22.10
2018-02-05T10:57:17.031Z,21.90
2018-02-05T10:59:44.631Z,22.50
2018-02-05T11:02:12.974Z,21.70
2018-02-05T11:04:40.866Z,23.43
2018-02-05T11:07:08.501Z,22.73
2018-02-05T11:09:36.154Z,22.80
2018-02-05T11:12:03.743Z,22.93
2018-02-05T11:14:31.312Z,20.57
2018-02-05T11:16:59.169Z,23.73
2018-02-05T11:19:26.766Z,21.60
2018-02-05T11:21:55.080Z,24.10
2018-02-05T11:24:22.657Z,22.37
2018-02-05T11:26:50.217Z,23.40
2018-02-05T11:29:17.830Z,17.57
2018-02-05T11:31:45.390Z,20.10
2018-02-05T11:34:13.734Z,23.70
2018-02-05T11:36:41.321Z,22.20
2018-02-05T11:39:09.654Z,22.60
2018-02-05T11:41:37.617Z,22.77
2018-02-05T11:44:05.180Z,22.40
2018-02-05T11:46:32.761Z,21.77
2018-02-05T11:49:00.357Z,23.90
2018-02-05T11:51:27.934Z,23.63
2018-02-05T11:53:55.770Z,22.77
2018-02-05T11:56:23.332Z,23.23
2018-02-05T11:58:50.924Z,19.37
2018-02-05T12:01:18.558Z,21.60
2018-02-05T12:03:46.110Z,21.60
2018-02-05T12:06:13.950Z,22.17
2018-02-05T12:08:41.513Z,21.10
2018-02-05T12:11:09.840Z,22.00
2018-02-05T12:13:37.415Z,21.67
2018-02-05T12:16:04.987Z,21.67
2018-02-05T12:18:33.373Z,20.43
2018-02-05T12:21:02.433Z,23.37
2018-02-05T12:23:30.207Z,23.43
2018-02-05T12:25:57.953Z,21.07
2018-02-05T12:28:25.803Z,21.73
2018-02-05T12:30:53.695Z,21.23
2018-02-05T12:33:21.267Z,18.10
2018-02-05T12:35:48.833Z,20.37
2018-02-05T12:38:16.404Z,19.90
2018-02-05T12:40:43.953Z,20.90
2018-02-05T12:43:13.344Z,19.37
2018-02-05T12:45:40.923Z,19.13
2018-02-05T12:48:09.252Z,18.93
2018-02-05T12:50:36.839Z,18.53
2018-02-05T12:53:04.399Z,18.37
2018-02-05T12:55:34.562Z,17.67
2018-02-05T12:58:02.191Z,18.40
2018-02-05T13:00:33.252Z,18.67
2018-02-05T13:03:06.073Z,18.80
2018-02-05T13:05:33.722Z,21.17
2018-02-05T13:08:01.565Z,19.17
2018-02-05T13:10:29.932Z,19.60
2018-02-05T13:12:58.321Z,18.40
2018-02-05T13:15:25.961Z,19.10
2018-02-05T13:17:55.018Z,18.50
2018-02-05T13:20:22.742Z,18.60
2018-02-05T13:22:51.077Z,19.03
2018-02-05T13:25:19.029Z,19.43
2018-02-05T13:27:46.733Z,19.00
2018-02-05T13:30:15.065Z,19.63
2018-02-05T13:32:42.632Z,19.57
2018-02-05T13:35:10.209Z,18.70
2018-02-05T13:37:38.649Z,20.63
2018-02-05T13:40:06.541Z,19.80
2018-02-05T13:42:34.111Z,18.43
2018-02-05T13:45:03.174Z,19.90
2018-02-05T13:47:30.788Z,19.83
2018-02-05T13:49:59.866Z,20.03
2018-02-05T13:52:28.994Z,18.87
2018-02-05T13:54:56.539Z,19.20
2018-02-05T13:57:24.896Z,19.60
2018-02-05T13:59:53.258Z,19.97
2018-02-05T14:02:20.818Z,20.03
2018-02-05T14:04:48.412Z,20.47
2018-02-05T14:07:16.730Z,19.20
2018-02-05T14:09:44.295Z,19.23
2018-02-05T14:12:11.886Z,22.13
2018-02-05T14:14:40.187Z,18.40
2018-02-05T14:17:08.917Z,20.23
2018-02-05T14:19:36.476Z,20.93
2018-02-05T14:22:04.031Z,20.67
2018-02-05T14:24:31.674Z,20.70
2018-02-05T14:26:59.238Z,20.60
2018-02-05T14:29:26.858Z,19.63
2018-02-05T14:31:55.196Z,22.23
2018-02-05T14:34:22.761Z,20.13
2018-02-05T14:36:50.354Z,19.73
2018-02-05T14:39:18.698Z,19.30
2018-02-05T14:41:46.305Z,19.83
2018-02-05T14:44:13.874Z,20.77
2018-02-05T14:46:41.441Z,20.33
2018-02-05T14:49:09.031Z,20.03
2018-02-05T14:51:36.572Z,19.57
2018-02-05T14:54:04.571Z,19.60
2018-02-05T14:56:32.133Z,17.77
2018-02-05T14:59:00.479Z,19.57
2018-02-05T15:01:28.084Z,18.40
2018-02-05T15:03:56.473Z,20.93
2018-02-05T15:06:25.084Z,20.00
2018-02-05T15:08:52.745Z,20.53
2018-02-05T15:11:20.293Z,18.50
2018-02-05T15:13:47.888Z,20.40
2018-02-05T15:16:15.597Z,19.67
2018-02-05T15:18:44.000Z,19.60
2018-02-05T15:21:11.558Z,20.00
2018-02-05T15:23:39.124Z,20.40
2018-02-05T15:26:06.698Z,18.90
2018-02-05T15:28:34.305Z,21.00
2018-02-05T15:31:03.879Z,21.50
2018-02-05T15:33:31.433Z,19.30
2018-02-05T15:35:58.985Z,19.17
2018-02-05T15:38:26.752Z,21.20
2018-02-05T15:40:54.307Z,19.67
2018-02-05T15:43:22.167Z,20.40
2018-02-05T15:45:49.730Z,19.50
2018-02-05T15:48:17.272Z,19.33
2018-02-05T15:50:44.875Z,20.30
2018-02-05T15:53:12.436Z,18.80
2018-02-05T15:55:40.358Z,17.80
2018-02-05T15:58:07.928Z,18.80
2018-02-05T16:00:35.790Z,20.00
2018-02-05T16:03:03.394Z,20.23
2018-02-05T16:05:31.738Z,18.70
2018-02-05T16:07:59.351Z,18.43
2018-02-05T16:10:26.918Z,19.13
2018-02-05T16:12:54.474Z,20.47
2018-02-05T16:15:22.065Z,18.60
2018-02-05T16:17:49.631Z,18.57
2018-02-05T16:20:17.229Z,19.53
2018-02-05T16:22:45.547Z,18.30
2018-02-05T16:25:13.112Z,18.43
2018-02-05T16:27:40.711Z,17.93
2018-02-05T16:30:08.256Z,18.07
2018-02-05T16:32:37.450Z,19.00
2018-02-05T16:35:05.020Z,19.07
2018-02-05T16:37:32.585Z,18.00
2018-02-05T16:40:00.210Z,18.30
2018-02-05T16:42:27.795Z,18.57
2018-02-05T16:44:56.255Z,19.30
2018-02-05T16:47:23.883Z,17.90
2018-02-05T16:49:51.439Z,17.80
2018-02-05T16:52:19.006Z,18.87
2018-02-05T16:54:46.578Z,17.87
2018-02-05T16:57:14.562Z,17.90
2018-02-05T16:59:42.125Z,18.20
2018-02-05T17:02:09.673Z,18.30
2018-02-05T17:04:37.295Z,18.20
2018-02-05T17:07:04.872Z,18.37
2018-02-05T17:09:32.458Z,19.10
2018-02-05T17:12:00.027Z,18.10
2018-02-05T17:14:27.580Z,18.60
2018-02-05T17:16:55.159Z,17.87
2018-02-05T17:19:22.725Z,17.00
2018-02-05T17:21:51.346Z,20.43
2018-02-05T17:24:18.897Z,20.43
2018-02-05T17:26:46.704Z,23.60
2018-02-05T17:31:48.879Z,18.90
2018-02-05T17:34:16.794Z,21.97
2018-02-05T17:36:45.290Z,18.17
2018-02-05T17:39:12.870Z,18.80
2018-02-05T17:41:40.458Z,17.73
2018-02-05T17:44:08.031Z,20.53
2018-02-05T17:46:36.419Z,19.50
2018-02-05T17:49:04.740Z,18.60
2018-02-05T17:51:32.314Z,19.17
2018-02-05T17:53:59.907Z,19.77
2018-02-05T17:56:28.247Z,20.90
2018-02-05T17:58:56.118Z,17.90
2018-02-05T18:01:23.712Z,18.53
2018-02-05T18:03:51.282Z,18.87
2018-02-05T18:06:19.649Z,20.43
2018-02-05T18:08:47.983Z,18.73
2018-02-05T18:11:15.851Z,20.77
2018-02-05T18:13:43.420Z,20.00
2018-02-05T18:16:10.984Z,19.80
2018-02-05T18:18:38.606Z,20.37
2018-02-05T18:21:06.187Z,19.33
2018-02-05T18:23:33.782Z,20.33
2018-02-05T18:26:02.113Z,20.57
2018-02-05T18:28:29.702Z,20.90
2018-02-05T18:30:57.567Z,18.90
2018-02-05T18:33:25.136Z,20.03
2018-02-05T18:35:53.482Z,20.50
2018-02-05T18:38:21.075Z,19.77
2018-02-05T18:40:48.651Z,19.73
2018-02-05T18:43:17.313Z,19.87
2018-02-05T18:45:44.870Z,21.50
2018-02-05T18:48:12.404Z,20.10
2018-02-05T18:50:39.996Z,21.90
2018-02-05T18:53:08.345Z,20.90
2018-02-05T18:55:36.305Z,20.80
2018-02-05T18:58:03.882Z,20.60
2018-02-05T19:00:43.237Z,20.87
2018-02-05T19:03:10.827Z,21.23
2018-02-05T19:05:38.392Z,22.57
2018-02-05T19:08:06.007Z,21.47
2018-02-05T19:10:34.284Z,21.93
2018-02-05T19:13:01.998Z,21.67
2018-02-05T19:15:29.668Z,20.77
2018-02-05T19:17:57.242Z,21.10
2018-02-05T19:20:24.876Z,21.47
2018-02-05T19:22:52.438Z,19.43
2018-02-05T19:25:20.325Z,20.80
2018-02-05T19:27:48.483Z,20.47
2018-02-05T19:30:16.056Z,20.93
2018-02-05T19:32:43.648Z,22.00
2018-02-05T19:35:11.248Z,22.47
2018-02-05T19:37:39.480Z,22.90
2018-02-05T19:40:07.914Z,20.10
2018-02-05T19:42:35.656Z,23.10
2018-02-05T19:45:03.360Z,21.17
2018-02-05T19:47:30.948Z,21.57
2018-02-05T19:49:59.598Z,20.53
2018-02-05T19:52:27.225Z,20.33
2018-02-05T19:54:54.807Z,20.20
2018-02-05T19:57:22.408Z,22.03
2018-02-05T19:59:49.960Z,23.07
2018-02-05T20:02:18.741Z,22.47
2018-02-05T20:04:46.628Z,23.07
2018-02-05T20:07:14.965Z,23.23
2018-02-05T20:09:43.403Z,22.10
2018-02-05T20:12:10.977Z,23.30
2018-02-05T20:14:38.792Z,22.53
2018-02-05T20:17:07.504Z,25.27
2018-02-05T20:19:35.828Z,29.17
2018-02-05T20:22:03.653Z,25.67
2018-02-05T20:24:31.993Z,25.43
2018-02-05T20:26:59.566Z,27.30
2018-02-05T20:29:27.936Z,29.37
2018-02-05T20:31:55.523Z,28.07
2018-02-05T20:34:23.126Z,29.30
2018-02-05T20:36:50.721Z,28.53
2018-02-05T20:39:19.469Z,26.40
2018-02-05T20:41:47.054Z,24.70
2018-02-05T20:44:14.797Z,27.57
2018-02-05T20:46:42.366Z,25.13
2018-02-05T20:49:09.928Z,28.60
2018-02-05T20:51:37.743Z,24.57
2018-02-05T20:54:05.303Z,24.60
2018-02-05T20:56:32.862Z,25.60
2018-02-05T20:59:00.453Z,23.47
2018-02-05T21:01:28.048Z,23.43
2018-02-05T21:03:56.412Z,23.40
2018-02-05T21:06:24.028Z,23.73
2018-02-05T21:08:51.837Z,22.13
2018-02-05T21:11:19.401Z,24.47
2018-02-05T21:13:46.965Z,21.80
2018-02-05T21:16:16.210Z,23.60
2018-02-05T21:18:43.791Z,24.17
2018-02-05T21:21:11.680Z,23.90
2018-02-05T21:23:39.291Z,24.43
2018-02-05T21:26:06.952Z,24.53
2018-02-05T21:28:34.616Z,24.00
2018-02-05T21:31:02.281Z,23.87
2018-02-05T21:33:29.865Z,23.53
2018-02-05T21:35:57.430Z,24.00
2018-02-05T21:38:25.358Z,23.07
2018-02-05T21:40:53.019Z,25.70
2018-02-05T21:43:20.583Z,24.93
2018-02-05T21:45:48.254Z,25.27
2018-02-05T21:48:15.811Z,25.80
2018-02-05T21:50:43.403Z,26.00
2018-02-05T21:53:12.545Z,25.17
2018-02-05T21:55:40.185Z,28.00
2018-02-05T21:58:08.743Z,26.07
2018-02-05T22:00:36.327Z,26.30
2018-02-05T22:03:04.679Z,25.80
2018-02-05T22:05:32.542Z,25.20
2018-02-05T22:08:00.114Z,24.07
2018-02-05T22:10:27.848Z,24.23
2018-02-05T22:12:55.562Z,24.50
2018-02-05T22:15:23.286Z,24.50
2018-02-05T22:17:50.893Z,30.77
2018-02-05T22:20:18.473Z,31.57
2018-02-05T22:22:46.331Z,32.97
2018-02-05T22:25:13.939Z,27.93
2018-02-05T22:27:41.480Z,26.07
2018-02-05T22:30:09.346Z,26.17
2018-02-05T22:32:36.922Z,29.30
2018-02-05T22:35:05.266Z,28.67
2018-02-05T22:37:33.146Z,27.97
2018-02-05T22:40:00.708Z,30.60
2018-02-05T22:42:28.285Z,30.80
2018-02-05T22:44:56.860Z,27.90
2018-02-05T22:47:24.465Z,24.03
2018-02-05T22:49:52.032Z,25.57
2018-02-05T22:52:19.921Z,24.07
2018-02-05T22:54:47.487Z,23.17
2018-02-05T22:57:15.052Z,24.17
2018-02-05T22:59:43.019Z,23.87
2018-02-05T23:02:10.580Z,22.50
2018-02-05T23:04:38.155Z,24.50
2018-02-05T23:07:06.102Z,24.87
2018-02-05T23:09:33.669Z,22.40
2018-02-05T23:12:01.251Z,25.17
2018-02-05T23:14:29.994Z,24.13
2018-02-05T23:16:57.606Z,26.60
2018-02-05T23:19:25.156Z,23.47
2018-02-05T23:21:53.845Z,24.23
2018-02-05T23:24:22.214Z,26.83
2018-02-05T23:26:50.560Z,24.33
2018-02-05T23:29:18.139Z,25.27
2018-02-05T23:31:45.701Z,24.10
2018-02-05T23:34:14.366Z,22.63
2018-02-05T23:36:42.046Z,25.47
2018-02-05T23:39:11.150Z,24.67
2018-02-05T23:41:39.770Z,23.23
2018-02-05T23:44:07.339Z,24.57
2018-02-05T23:46:34.910Z,25.50
2018-02-05T23:49:02.904Z,25.63
2018-02-05T23:51:30.466Z,25.57
2018-02-05T23:53:58.052Z,26.90
2018-02-05T23:56:25.832Z,25.67
2018-02-05T23:58:53.502Z,24.77
